Time;durP1;ratioP1;P1;durP2;ratioP2;P2;SDS_P1;SDS_P2;PMS_P1;PMS_P2;Temp;Humidity;BMP_temperature;BMP_pressure;BME280_temperature;BME280_humidity;BME280_pressure;Samples;Min_cycle;Max_cycle;Signal;HPM_P1;HPM_P2
2021/11/28 00:00:39;;;;;;;18.42;13.82;;;5.00;99.90;;;;;;5066938;28;20045;-43
2021/11/28 00:03:08;;;;;;;15.57;12.60;;;5.00;99.90;;;;;;5046332;28;20044;-42
2021/11/28 00:05:34;;;;;;;18.35;13.80;;;5.00;99.90;;;;;;5062150;28;20460;-42
2021/11/28 00:08:12;;;;;;;18.73;13.25;;;5.00;99.90;;;;;;5066975;28;20048;-43
2021/11/28 00:13:09;;;;;;;16.60;13.43;;;5.00;99.90;;;;;;5067405;28;20033;-44
2021/11/28 00:15:38;;;;;;;18.15;13.55;;;5.00;99.90;;;;;;5066505;28;20025;-43
2021/11/28 00:18:05;;;;;;;17.63;12.88;;;5.00;99.90;;;;;;5066196;28;20372;-43
2021/11/28 00:20:30;;;;;;;17.05;12.85;;;5.00;99.90;;;;;;5067241;28;20031;-32
2021/11/28 00:22:56;;;;;;;16.90;13.32;;;5.00;99.90;;;;;;5066860;28;20749;-32
2021/11/28 00:25:22;;;;;;;17.55;13.85;;;5.00;99.90;;;;;;5063865;28;20025;-33
2021/11/28 00:27:50;;;;;;;19.63;14.60;;;5.00;99.90;;;;;;5070885;28;20036;-33
2021/11/28 00:30:20;;;;;;;19.00;13.70;;;4.90;99.90;;;;;;5073716;28;20024;-33
2021/11/28 00:32:45;;;;;;;19.48;15.48;;;4.90;99.90;;;;;;5072587;28;20460;-43
2021/11/28 00:35:11;;;;;;;23.45;16.85;;;4.90;99.90;;;;;;5073226;28;20036;-42
2021/11/28 00:37:36;;;;;;;19.83;15.75;;;4.90;99.90;;;;;;5073354;28;20531;-44
2021/11/28 00:40:03;;;;;;;21.90;16.05;;;4.80;99.90;;;;;;5072930;28;20121;-44
2021/11/28 00:42:29;;;;;;;22.42;15.45;;;4.80;99.90;;;;;;5073284;28;20135;-44
2021/11/28 00:44:55;;;;;;;19.25;14.60;;;4.80;99.90;;;;;;5073020;28;20103;-43
2021/11/28 00:47:20;;;;;;;19.35;14.35;;;4.80;99.90;;;;;;5073420;28;20482;-43
2021/11/28 00:49:52;;;;;;;19.45;14.20;;;4.80;99.90;;;;;;5073088;28;20021;-42
2021/11/28 00:52:17;;;;;;;21.05;15.60;;;4.90;99.90;;;;;;5072860;28;20107;-43
2021/11/28 00:54:43;;;;;;;19.70;15.00;;;4.90;99.90;;;;;;5073749;28;20570;-41
2021/11/28 00:57:10;;;;;;;18.52;14.50;;;4.90;99.90;;;;;;5073303;28;20138;-43
2021/11/28 00:59:35;;;;;;;19.90;14.57;;;5.00;99.90;;;;;;5072459;28;20033;-43
2021/11/28 01:02:01;;;;;;;20.45;14.27;;;5.00;99.90;;;;;;5073094;28;20036;-43
2021/11/28 01:04:26;;;;;;;18.90;14.65;;;5.00;99.90;;;;;;5073116;28;20036;-44
2021/11/28 01:06:52;;;;;;;21.05;14.82;;;5.00;99.90;;;;;;5072151;28;20024;-42
2021/11/28 01:09:19;;;;;;;19.77;14.15;;;5.00;99.90;;;;;;5073811;28;20512;-42
2021/11/28 01:11:45;;;;;;;23.40;15.55;;;5.00;99.90;;;;;;5072440;28;20035;-44
2021/11/28 01:14:10;;;;;;;23.35;15.02;;;5.00;99.90;;;;;;5072176;28;20435;-42
2021/11/28 01:16:36;;;;;;;20.85;14.30;;;5.00;99.90;;;;;;5073158;28;20103;-43
2021/11/28 01:19:04;;;;;;;20.13;14.65;;;5.00;99.90;;;;;;5072730;28;20059;-44
2021/11/28 01:21:31;;;;;;;19.73;14.43;;;5.00;99.90;;;;;;5072907;28;20025;-43
2021/11/28 01:23:56;;;;;;;20.95;15.00;;;5.00;99.90;;;;;;5069406;28;20058;-43
2021/11/28 01:26:22;;;;;;;23.10;15.70;;;5.00;99.90;;;;;;5073304;28;20036;-44
2021/11/28 01:28:49;;;;;;;21.85;15.35;;;5.00;99.90;;;;;;5071700;28;20531;-43
2021/11/28 01:31:15;;;;;;;21.25;15.43;;;5.00;99.90;;;;;;5073720;28;20031;-43
2021/11/28 01:33:41;;;;;;;21.50;15.88;;;5.00;99.90;;;;;;5072686;28;20024;-43
2021/11/28 01:36:06;;;;;;;20.63;14.80;;;5.00;99.90;;;;;;5072728;28;20039;-45
2021/11/28 01:38:32;;;;;;;23.00;16.80;;;5.00;99.90;;;;;;5071646;28;20116;-43
2021/11/28 01:40:58;;;;;;;23.15;15.77;;;5.00;99.90;;;;;;5068623;28;20137;-43
2021/11/28 01:43:23;;;;;;;22.08;15.82;;;5.00;99.90;;;;;;5069536;28;20098;-43
2021/11/28 01:45:51;;;;;;;22.77;15.70;;;5.00;99.90;;;;;;5069686;28;20032;-43
2021/11/28 01:48:18;;;;;;;21.83;15.27;;;5.00;99.90;;;;;;5068704;28;20032;-44
2021/11/28 01:50:47;;;;;;;21.27;15.75;;;5.00;99.90;;;;;;5070541;28;20024;-43
2021/11/28 01:53:23;;;;;;;19.70;15.10;;;5.00;99.90;;;;;;5069372;28;20036;-42
2021/11/28 01:55:50;;;;;;;20.52;14.90;;;5.00;99.90;;;;;;5068866;28;20040;-43
2021/11/28 01:58:16;;;;;;;23.25;15.68;;;4.90;99.90;;;;;;5069300;28;20021;-43
2021/11/28 02:00:46;;;;;;;23.13;15.85;;;5.00;99.90;;;;;;5069045;28;20051;-41
2021/11/28 02:03:13;;;;;;;22.23;15.07;;;4.90;99.90;;;;;;5068521;28;20125;-42
2021/11/28 02:05:42;;;;;;;22.77;16.30;;;4.90;99.90;;;;;;5069472;28;20534;-42
2021/11/28 02:08:08;;;;;;;20.98;15.23;;;4.90;99.90;;;;;;5069047;28;20036;-43
2021/11/28 02:10:33;;;;;;;21.70;16.08;;;4.90;99.90;;;;;;5068069;28;20065;-43
2021/11/28 02:12:59;;;;;;;24.23;17.05;;;4.90;99.90;;;;;;5069176;28;20420;-42
2021/11/28 02:15:25;;;;;;;24.38;15.82;;;4.90;99.90;;;;;;5068814;28;20040;-43
2021/11/28 02:17:54;;;;;;;22.02;15.45;;;4.90;99.90;;;;;;5068265;28;20032;-44
2021/11/28 02:20:22;;;;;;;22.45;15.30;;;4.80;99.90;;;;;;5068939;28;20029;-43
2021/11/28 02:22:48;;;;;;;19.95;14.23;;;4.90;99.90;;;;;;5069932;28;20123;-44
2021/11/28 02:25:14;;;;;;;20.52;14.70;;;4.90;99.90;;;;;;5068183;28;20151;-43
2021/11/28 02:27:39;;;;;;;25.27;17.00;;;4.90;99.90;;;;;;5069271;28;20123;-43
2021/11/28 02:30:07;;;;;;;25.30;17.77;;;4.80;99.90;;;;;;5068658;28;20027;-42
2021/11/28 02:32:33;;;;;;;27.10;17.80;;;4.80;99.90;;;;;;5067991;28;20178;-43
2021/11/28 02:34:58;;;;;;;28.30;18.85;;;4.70;99.90;;;;;;5068731;28;20104;-47
2021/11/28 02:37:24;;;;;;;25.15;17.75;;;4.70;99.90;;;;;;5067701;28;20171;-43
2021/11/28 02:39:50;;;;;;;27.25;17.15;;;4.70;99.90;;;;;;5068220;28;20153;-41
2021/11/28 02:42:18;;;;;;;24.77;16.92;;;4.70;99.90;;;;;;5068805;28;20048;-43
2021/11/28 02:44:45;;;;;;;24.80;17.05;;;4.70;99.90;;;;;;5067797;28;20032;-43
2021/11/28 02:47:10;;;;;;;25.58;16.40;;;4.70;99.90;;;;;;5068112;28;20496;-42
2021/11/28 02:49:36;;;;;;;23.25;15.38;;;4.70;99.90;;;;;;5067977;28;20027;-43
2021/11/28 02:52:02;;;;;;;23.98;16.00;;;4.70;99.90;;;;;;5067778;28;20055;-43
2021/11/28 02:54:28;;;;;;;23.50;15.75;;;4.70;99.90;;;;;;5068134;28;20094;-43
2021/11/28 02:56:53;;;;;;;25.02;16.35;;;4.70;99.90;;;;;;5067619;28;20032;-42
2021/11/28 02:59:19;;;;;;;25.25;16.33;;;4.70;99.90;;;;;;5068460;28;20044;-42
2021/11/28 03:01:45;;;;;;;27.75;18.63;;;4.70;99.90;;;;;;5067375;28;20405;-43
2021/11/28 03:04:11;;;;;;;30.80;19.33;;;4.70;99.90;;;;;;5068715;28;20029;-44
2021/11/28 03:06:36;;;;;;;26.05;19.00;;;4.60;99.90;;;;;;5067770;28;20380;-44
2021/11/28 03:09:03;;;;;;;27.10;19.08;;;4.60;99.90;;;;;;5068219;28;20032;-43
2021/11/28 03:11:29;;;;;;;27.40;18.25;;;4.60;99.90;;;;;;5068229;28;20031;-43
2021/11/28 03:13:55;;;;;;;28.52;18.50;;;4.60;99.90;;;;;;5067345;28;20028;-42
2021/11/28 03:16:23;;;;;;;25.08;15.80;;;4.60;99.90;;;;;;5067919;28;20035;-42
2021/11/28 03:18:50;;;;;;;27.48;18.33;;;4.60;99.90;;;;;;5067770;28;20067;-44
2021/11/28 03:21:19;;;;;;;27.63;17.25;;;4.60;99.90;;;;;;5066997;28;20033;-43
2021/11/28 03:23:47;;;;;;;27.10;18.30;;;4.60;99.90;;;;;;5067600;28;20041;-43
2021/11/28 03:26:26;;;;;;;28.27;19.02;;;4.60;99.90;;;;;;5067371;28;20019;-43
2021/11/28 03:28:52;;;;;;;28.38;18.70;;;4.60;99.90;;;;;;5067299;28;20028;-43
2021/11/28 03:31:17;;;;;;;26.98;17.10;;;4.60;99.90;;;;;;5067715;28;20039;-42
2021/11/28 03:33:44;;;;;;;26.98;17.35;;;4.60;99.90;;;;;;5067411;28;20059;-42
2021/11/28 03:36:12;;;;;;;27.20;18.58;;;4.50;99.90;;;;;;5067103;28;20099;-42
2021/11/28 03:38:41;;;;;;;23.48;16.70;;;4.50;99.90;;;;;;5066753;28;20082;-43
2021/11/28 03:41:07;;;;;;;25.35;17.13;;;4.60;99.90;;;;;;5066422;28;20031;-44
2021/11/28 03:43:33;;;;;;;26.48;17.67;;;4.50;99.90;;;;;;5067418;28;20041;-42
2021/11/28 03:45:59;;;;;;;28.08;18.48;;;4.60;99.90;;;;;;5066849;28;20437;-43
2021/11/28 03:48:25;;;;;;;29.58;20.27;;;4.50;99.90;;;;;;5066419;28;20035;-43
2021/11/28 03:50:50;;;;;;;27.35;19.10;;;4.50;99.90;;;;;;5066968;28;20027;-42
2021/11/28 03:53:16;;;;;;;29.58;19.30;;;4.50;99.90;;;;;;5067031;28;20064;-43
2021/11/28 03:55:42;;;;;;;27.33;18.02;;;4.50;99.90;;;;;;5066436;28;20020;-43
2021/11/28 03:58:08;;;;;;;27.67;18.35;;;4.50;99.90;;;;;;5067729;28;20028;-42
2021/11/28 04:00:34;;;;;;;24.58;16.77;;;4.40;99.90;;;;;;5067126;28;20426;-42
2021/11/28 04:03:01;;;;;;;23.95;16.38;;;4.50;99.90;;;;;;5065435;28;20064;-43
2021/11/28 04:05:27;;;;;;;24.42;16.40;;;4.50;99.90;;;;;;5067087;28;20350;-42
2021/11/28 04:07:55;;;;;;;24.75;16.45;;;4.50;99.90;;;;;;5066638;28;20468;-42
2021/11/28 04:10:21;;;;;;;25.05;15.43;;;4.60;99.90;;;;;;5066549;28;20016;-42
2021/11/28 04:12:47;;;;;;;25.98;17.42;;;4.60;99.90;;;;;;5067401;28;20043;-43
2021/11/28 04:15:13;;;;;;;25.27;17.08;;;4.60;99.90;;;;;;5066866;28;20020;-42
2021/11/28 04:17:38;;;;;;;29.25;19.25;;;4.60;99.90;;;;;;5065828;28;20565;-43
2021/11/28 04:20:06;;;;;;;32.30;20.38;;;4.60;99.90;;;;;;5066973;28;20119;-42
2021/11/28 04:22:32;;;;;;;28.92;19.05;;;4.50;99.90;;;;;;5066742;28;20066;-42
2021/11/28 04:24:58;;;;;;;29.38;18.77;;;4.50;99.90;;;;;;5062507;28;20025;-42
2021/11/28 04:27:24;;;;;;;28.25;17.80;;;4.50;99.90;;;;;;5066635;28;20031;-43
2021/11/28 04:29:50;;;;;;;28.23;17.13;;;4.50;99.90;;;;;;5065680;28;20167;-42
2021/11/28 04:32:16;;;;;;;28.80;19.05;;;4.50;99.90;;;;;;5066967;28;20423;-42
2021/11/28 04:34:41;;;;;;;27.02;17.10;;;4.50;99.90;;;;;;5066595;28;20028;-43
2021/11/28 04:37:07;;;;;;;26.48;17.20;;;4.60;99.90;;;;;;5046196;28;20094;-43
2021/11/28 04:39:33;;;;;;;29.63;18.77;;;4.50;99.90;;;;;;5059813;28;20531;-44
2021/11/28 04:41:58;;;;;;;23.67;16.73;;;4.50;99.90;;;;;;5066721;28;20032;-42
2021/11/28 04:44:24;;;;;;;22.90;16.20;;;4.50;99.90;;;;;;5065576;28;20029;-42
2021/11/28 04:46:50;;;;;;;23.83;16.33;;;4.60;99.90;;;;;;5066483;28;20067;-43
2021/11/28 04:49:16;;;;;;;22.50;15.50;;;4.60;99.90;;;;;;5066649;28;20027;-43
2021/11/28 04:51:41;;;;;;;23.90;15.52;;;4.60;99.90;;;;;;5065454;28;20024;-43
2021/11/28 04:54:08;;;;;;;20.27;13.75;;;4.60;99.90;;;;;;5066076;28;20032;-42
2021/11/28 04:56:34;;;;;;;23.40;14.82;;;4.60;99.90;;;;;;5066197;28;20480;-41
2021/11/28 04:59:02;;;;;;;24.42;16.23;;;4.60;99.90;;;;;;5065980;28;20056;-43
2021/11/28 05:01:28;;;;;;;23.38;15.57;;;4.60;99.90;;;;;;5066299;28;20024;-42
2021/11/28 05:03:53;;;;;;;23.05;14.93;;;4.60;99.90;;;;;;5065541;28;20032;-43
2021/11/28 05:06:19;;;;;;;23.35;15.32;;;4.60;99.90;;;;;;5066201;28;20116;-43
2021/11/28 05:08:45;;;;;;;21.63;14.80;;;4.60;99.90;;;;;;5066361;28;20020;-42
2021/11/28 05:11:11;;;;;;;24.90;16.38;;;4.60;99.90;;;;;;5066057;28;20020;-41
2021/11/28 05:13:37;;;;;;;26.70;17.35;;;4.60;99.90;;;;;;5067137;28;20021;-43
2021/11/28 05:16:03;;;;;;;27.42;17.35;;;4.60;99.90;;;;;;5069421;28;20074;-42
2021/11/28 05:18:28;;;;;;;27.88;17.95;;;4.60;99.90;;;;;;5069610;28;20071;-43
2021/11/28 05:20:54;;;;;;;25.55;17.17;;;4.60;99.90;;;;;;5069324;28;20105;-43
2021/11/28 05:23:19;;;;;;;25.77;17.23;;;4.60;99.90;;;;;;5070293;28;20036;-43
2021/11/28 05:25:45;;;;;;;25.35;16.63;;;4.60;99.90;;;;;;5069739;28;20021;-42
2021/11/28 05:28:11;;;;;;;25.95;16.95;;;4.50;99.90;;;;;;5068863;28;20035;-42
2021/11/28 05:30:38;;;;;;;23.67;16.30;;;4.50;99.90;;;;;;5069454;28;20036;-43
2021/11/28 05:33:04;;;;;;;24.83;16.70;;;4.50;99.90;;;;;;5069239;28;20107;-43
2021/11/28 05:35:30;;;;;;;27.70;16.98;;;4.50;99.90;;;;;;5070083;28;20111;-42
2021/11/28 05:37:56;;;;;;;24.98;16.73;;;4.50;99.90;;;;;;5069652;28;20043;-43
2021/11/28 05:40:22;;;;;;;22.15;15.95;;;4.50;99.90;;;;;;5068646;28;20105;-43
2021/11/28 05:42:52;;;;;;;28.17;17.58;;;4.40;99.90;;;;;;5069641;28;20040;-43
2021/11/28 05:45:20;;;;;;;28.70;17.98;;;4.40;99.90;;;;;;5069584;28;20511;-43
2021/11/28 05:47:46;;;;;;;26.48;16.85;;;4.40;99.90;;;;;;5065465;28;20028;-43
2021/11/28 05:50:12;;;;;;;30.52;18.45;;;4.40;99.90;;;;;;5069041;28;20029;-43
2021/11/28 05:52:38;;;;;;;26.63;17.08;;;4.30;99.90;;;;;;5068501;28;20038;-43
2021/11/28 05:55:04;;;;;;;27.10;17.23;;;4.30;99.90;;;;;;5068888;28;20467;-42
2021/11/28 05:57:30;;;;;;;28.73;17.58;;;4.30;99.90;;;;;;5069050;28;20032;-42
2021/11/28 05:59:55;;;;;;;28.42;17.77;;;4.30;99.90;;;;;;5069018;28;20490;-42
2021/11/28 06:02:21;;;;;;;29.65;19.40;;;4.30;99.90;;;;;;5068570;28;20504;-43
2021/11/28 06:04:46;;;;;;;27.58;18.40;;;4.30;99.90;;;;;;5069138;28;20033;-42
2021/11/28 06:07:12;;;;;;;29.23;18.63;;;4.20;99.90;;;;;;5069112;28;20460;-43
2021/11/28 06:09:38;;;;;;;28.55;19.15;;;4.20;99.90;;;;;;5068633;28;20100;-43
2021/11/28 06:12:03;;;;;;;26.75;17.95;;;4.10;99.90;;;;;;5068681;28;20028;-43
2021/11/28 06:14:29;;;;;;;32.15;21.33;;;4.10;99.90;;;;;;5068778;28;20063;-42
2021/11/28 06:16:55;;;;;;;30.10;18.50;;;4.00;99.90;;;;;;5067889;28;20024;-44
2021/11/28 06:19:20;;;;;;;29.20;19.00;;;4.00;99.90;;;;;;5069032;28;20048;-44
2021/11/28 06:21:47;;;;;;;33.60;20.23;;;3.90;99.90;;;;;;5068975;28;20452;-43
2021/11/28 06:24:13;;;;;;;34.47;20.33;;;3.90;99.90;;;;;;5068061;28;20024;-42
2021/11/28 06:26:45;;;;;;;32.60;19.20;;;3.90;99.90;;;;;;5067496;28;20027;-43
2021/11/28 06:29:13;;;;;;;31.17;19.50;;;3.80;99.90;;;;;;5065422;28;20044;-44
2021/11/28 06:31:40;;;;;;;32.15;18.52;;;3.80;99.90;;;;;;5067966;28;20024;-44
2021/11/28 06:34:06;;;;;;;29.42;19.13;;;3.80;99.90;;;;;;5068075;28;20029;-43
2021/11/28 06:36:31;;;;;;;28.67;17.45;;;3.80;99.90;;;;;;5068001;28;20036;-40
2021/11/28 06:38:57;;;;;;;24.88;16.05;;;3.70;99.90;;;;;;5068380;28;20093;-43
2021/11/28 06:41:26;;;;;;;27.45;17.13;;;3.70;99.90;;;;;;5068289;28;20027;-43
2021/11/28 06:43:53;;;;;;;24.00;16.30;;;3.70;99.90;;;;;;5067542;28;20463;-44
2021/11/28 06:46:18;;;;;;;26.15;17.02;;;3.60;99.90;;;;;;5069529;28;20032;-43
2021/11/28 06:48:44;;;;;;;24.55;16.08;;;3.60;99.90;;;;;;5068776;28;20028;-43
2021/11/28 06:51:09;;;;;;;24.58;15.63;;;3.70;99.90;;;;;;5068388;28;20029;-42
2021/11/28 06:53:35;;;;;;;37.30;17.15;;;3.70;99.90;;;;;;5068106;28;20012;-43
2021/11/28 06:56:03;;;;;;;46.42;17.05;;;3.80;99.90;;;;;;5068203;28;20028;-43
2021/11/28 06:58:33;;;;;;;42.15;18.05;;;3.80;99.90;;;;;;5067286;28;20028;-42
2021/11/28 07:00:58;;;;;;;39.45;18.45;;;3.90;99.90;;;;;;5068271;28;20029;-42
2021/11/28 07:03:24;;;;;;;36.40;19.58;;;3.90;99.90;;;;;;5067736;28;20044;-42
2021/11/28 07:05:50;;;;;;;49.22;18.40;;;3.80;99.90;;;;;;5067281;28;20108;-43
2021/11/28 07:08:16;;;;;;;42.38;18.35;;;3.90;99.90;;;;;;5068075;28;20028;-42
2021/11/28 07:10:41;;;;;;;37.25;19.40;;;3.90;99.90;;;;;;5067993;28;20627;-44
2021/11/28 07:13:08;;;;;;;40.88;21.38;;;3.90;99.90;;;;;;5067009;28;20082;-42
2021/11/28 07:15:34;;;;;;;50.60;20.13;;;4.00;99.90;;;;;;5067830;28;20650;-42
2021/11/28 07:18:00;;;;;;;43.78;20.05;;;3.90;99.90;;;;;;5067348;28;20373;-44
2021/11/28 07:20:25;;;;;;;51.42;19.95;;;3.90;99.90;;;;;;5066477;28;20048;-42
2021/11/28 07:22:51;;;;;;;59.75;20.70;;;3.90;99.90;;;;;;5067420;28;20037;-44
2021/11/28 07:25:18;;;;;;;37.97;19.48;;;3.90;99.90;;;;;;5067722;28;20024;-43
2021/11/28 07:27:44;;;;;;;37.08;17.67;;;3.80;99.90;;;;;;5066974;28;20016;-43
2021/11/28 07:30:10;;;;;;;36.65;18.05;;;3.80;99.90;;;;;;5067565;28;20031;-44
2021/11/28 07:32:35;;;;;;;41.00;18.95;;;3.80;99.90;;;;;;5067486;28;20021;-42
2021/11/28 07:35:01;;;;;;;35.92;18.45;;;3.80;99.90;;;;;;5066584;28;20013;-44
2021/11/28 07:37:27;;;;;;;28.58;17.70;;;3.80;99.90;;;;;;5066695;28;20043;-43
2021/11/28 07:39:53;;;;;;;34.70;17.02;;;3.80;99.90;;;;;;5066540;28;20020;-44
2021/11/28 07:42:18;;;;;;;40.40;17.50;;;3.70;99.90;;;;;;5067416;28;20036;-43
2021/11/28 07:44:44;;;;;;;43.22;16.70;;;3.70;99.90;;;;;;5067198;28;20027;-42
2021/11/28 07:47:09;;;;;;;37.70;17.45;;;3.60;99.90;;;;;;5066537;28;20078;-42
2021/11/28 07:49:35;;;;;;;36.53;16.92;;;3.60;99.90;;;;;;5067396;28;20036;-43
2021/11/28 07:52:00;;;;;;;39.33;17.73;;;3.60;99.90;;;;;;5067194;28;20025;-43
2021/11/28 07:54:26;;;;;;;53.33;19.00;;;3.60;99.90;;;;;;5066102;28;20028;-43
2021/11/28 07:56:52;;;;;;;29.90;18.33;;;3.60;99.90;;;;;;5067010;28;20039;-42
2021/11/28 07:59:17;;;;;;;44.92;17.45;;;3.50;99.90;;;;;;5067579;28;20021;-42
2021/11/28 08:01:43;;;;;;;29.88;17.08;;;3.50;99.90;;;;;;5066225;28;20029;-43
2021/11/28 08:04:08;;;;;;;40.72;17.00;;;3.50;99.90;;;;;;5066962;28;20037;-43
2021/11/28 08:06:34;;;;;;;27.88;17.00;;;3.60;99.90;;;;;;5067064;28;20020;-42
2021/11/28 08:08:59;;;;;;;36.30;18.35;;;3.60;99.90;;;;;;5066327;28;20114;-43
2021/11/28 08:11:25;;;;;;;32.30;16.60;;;3.50;99.90;;;;;;5066609;28;20082;-42
2021/11/28 08:13:50;;;;;;;38.97;16.58;;;3.50;99.90;;;;;;5067095;28;20025;-42
2021/11/28 08:16:16;;;;;;;34.55;15.60;;;3.50;99.90;;;;;;5066683;28;20566;-44
2021/11/28 08:18:42;;;;;;;33.08;15.90;;;3.60;99.90;;;;;;5066480;28;20172;-42
2021/11/28 08:21:08;;;;;;;23.05;14.82;;;3.60;99.90;;;;;;5066639;28;20656;-42
2021/11/28 08:23:34;;;;;;;39.20;18.98;;;3.60;99.90;;;;;;5066182;28;20065;-43
2021/11/28 08:26:00;;;;;;;44.22;18.70;;;3.60;99.90;;;;;;5066720;28;20020;-42
2021/11/28 08:28:25;;;;;;;37.92;17.80;;;3.60;99.90;;;;;;5066540;28;20440;-42
2021/11/28 08:30:51;;;;;;;49.38;16.42;;;3.60;99.90;;;;;;5065748;28;20136;-43
2021/11/28 08:33:16;;;;;;;33.22;16.65;;;3.60;99.90;;;;;;5066885;28;20067;-43
2021/11/28 08:35:42;;;;;;;28.13;14.98;;;3.60;99.90;;;;;;5066536;28;20464;-43
2021/11/28 08:38:08;;;;;;;28.42;14.95;;;3.60;99.90;;;;;;5065496;28;20027;-42
2021/11/28 08:40:37;;;;;;;25.58;13.88;;;3.70;99.90;;;;;;5066456;28;20033;-44
2021/11/28 08:43:06;;;;;;;23.67;14.50;;;3.70;99.90;;;;;;5065512;28;20033;-43
2021/11/28 08:45:32;;;;;;;30.42;17.30;;;3.70;99.90;;;;;;5066438;28;20020;-42
2021/11/28 08:48:01;;;;;;;29.35;16.10;;;3.70;99.90;;;;;;5066778;28;20028;-43
2021/11/28 08:50:27;;;;;;;25.08;14.63;;;3.70;99.90;;;;;;5066620;28;20032;-43
2021/11/28 08:52:53;;;;;;;27.70;15.68;;;3.70;99.90;;;;;;5068612;28;20032;-42
2021/11/28 08:55:20;;;;;;;29.92;17.20;;;3.70;99.90;;;;;;5069649;28;20025;-43
2021/11/28 08:57:47;;;;;;;30.08;17.48;;;3.70;99.90;;;;;;5068573;28;20043;-42
2021/11/28 09:00:15;;;;;;;32.58;16.60;;;3.70;99.90;;;;;;5069656;28;20025;-43
2021/11/28 09:02:41;;;;;;;29.77;16.95;;;3.80;99.90;;;;;;5069777;28;20060;-44
2021/11/28 09:05:07;;;;;;;32.10;17.17;;;3.80;99.90;;;;;;5068742;28;20055;-40
2021/11/28 09:07:33;;;;;;;30.45;16.80;;;3.80;99.90;;;;;;5069032;28;20487;-42
2021/11/28 09:09:59;;;;;;;26.48;16.10;;;3.90;99.90;;;;;;5069917;28;20119;-43
2021/11/28 09:12:25;;;;;;;29.20;17.65;;;3.90;99.90;;;;;;5068441;28;20129;-43
2021/11/28 09:14:50;;;;;;;29.95;17.77;;;4.00;99.90;;;;;;5069632;28;20427;-40
2021/11/28 09:17:16;;;;;;;27.85;17.17;;;4.00;99.90;;;;;;5069703;28;20630;-42
2021/11/28 09:19:49;;;;;;;27.48;16.88;;;4.00;99.90;;;;;;5068228;28;20080;-41
2021/11/28 09:22:24;;;;;;;29.10;16.88;;;4.00;99.90;;;;;;5069651;28;20027;-43
2021/11/28 09:24:50;;;;;;;27.90;15.73;;;4.10;99.90;;;;;;5069434;28;20032;-43
2021/11/28 09:27:20;;;;;;;24.50;14.40;;;4.10;99.90;;;;;;5069119;28;20487;-42
2021/11/28 09:29:46;;;;;;;24.65;14.20;;;4.20;99.90;;;;;;5068728;28;20028;-42
2021/11/28 09:32:16;;;;;;;25.65;15.50;;;4.30;99.90;;;;;;5068386;28;20064;-43
2021/11/28 09:34:42;;;;;;;22.15;12.85;;;4.30;99.90;;;;;;5068904;28;20031;-44
2021/11/28 09:37:08;;;;;;;22.05;14.15;;;4.40;99.90;;;;;;5068942;28;20055;-43
2021/11/28 09:39:35;;;;;;;23.88;14.13;;;4.40;99.90;;;;;;5068763;28;20051;-43
2021/11/28 09:42:04;;;;;;;26.13;14.45;;;4.60;99.90;;;;;;5068611;28;20052;-43
2021/11/28 09:44:34;;;;;;;25.13;15.10;;;4.70;99.90;;;;;;5069097;28;20035;-43
2021/11/28 09:47:04;;;;;;;24.90;15.18;;;4.80;99.90;;;;;;5069205;28;20120;-43
2021/11/28 09:49:30;;;;;;;25.48;16.17;;;5.00;99.90;;;;;;5068895;28;20039;-44
2021/11/28 09:52:00;;;;;;;26.25;15.63;;;5.10;99.90;;;;;;5069320;28;20371;-43
2021/11/28 09:54:27;;;;;;;24.08;15.00;;;5.20;99.90;;;;;;5068549;28;20044;-42
2021/11/28 09:56:55;;;;;;;23.38;14.77;;;5.30;99.90;;;;;;5065544;28;20043;-43
2021/11/28 09:59:24;;;;;;;22.15;14.07;;;5.40;99.90;;;;;;5068984;28;20028;-44
2021/11/28 10:01:55;;;;;;;19.63;13.45;;;5.40;99.90;;;;;;5067934;28;20069;-43
2021/11/28 10:04:21;;;;;;;18.85;12.50;;;5.40;99.90;;;;;;5069604;28;20112;-43
2021/11/28 10:06:47;;;;;;;22.10;13.80;;;5.50;99.90;;;;;;5068868;28;20135;-41
2021/11/28 10:09:13;;;;;;;21.73;13.75;;;5.50;99.90;;;;;;5067770;28;20032;-43
2021/11/28 10:11:42;;;;;;;22.33;14.68;;;5.60;99.90;;;;;;5069237;28;20349;-43
2021/11/28 10:14:10;;;;;;;20.67;13.80;;;5.50;99.90;;;;;;5068689;28;20033;-43
2021/11/28 10:16:36;;;;;;;20.80;13.38;;;5.50;99.90;;;;;;5066971;28;20107;-42
2021/11/28 10:19:08;;;;;;;21.38;13.98;;;5.60;99.90;;;;;;5068661;28;20147;-42
2021/11/28 10:21:34;;;;;;;19.90;13.25;;;5.60;99.90;;;;;;5067933;28;20107;-43
2021/11/28 10:24:17;;;;;;;22.75;14.52;;;5.60;99.90;;;;;;5048156;28;20123;-44
2021/11/28 10:26:55;;;;;;;;;;;5.60;99.90;;;;;;5067315;28;20039;-43
2021/11/28 10:29:22;;;;;;;22.67;14.20;;;5.70;99.90;;;;;;5067862;28;20336;-43
2021/11/28 10:31:55;;;;;;;25.02;14.18;;;5.60;99.90;;;;;;5068508;28;20033;-42
2021/11/28 10:34:24;;;;;;;20.25;12.60;;;5.60;99.90;;;;;;5068906;28;20123;-43
2021/11/28 10:36:52;;;;;;;21.23;12.82;;;5.70;99.90;;;;;;5066857;28;20036;-44
2021/11/28 10:39:21;;;;;;;22.35;14.20;;;5.70;99.90;;;;;;5068752;28;20055;-43
2021/11/28 10:41:57;;;;;;;19.40;13.20;;;5.60;99.90;;;;;;5068694;28;20028;-43
2021/11/28 10:44:24;;;;;;;21.23;13.63;;;5.70;99.90;;;;;;5067546;28;20032;-43
2021/11/28 10:46:51;;;;;;;20.77;13.48;;;5.70;99.90;;;;;;5068310;28;20020;-44
2021/11/28 10:49:19;;;;;;;18.55;12.30;;;5.70;99.90;;;;;;5068224;28;20096;-43
2021/11/28 10:51:50;;;;;;;22.38;14.07;;;5.70;99.90;;;;;;5067137;28;20021;-43
2021/11/28 10:54:32;;;;;;;15.45;11.07;;;5.70;99.90;;;;;;5068101;28;20078;-43
2021/11/28 10:57:07;;;;;;;21.63;14.00;;;5.80;99.90;;;;;;5066668;28;20078;-42
2021/11/28 10:59:41;;;;;;;21.73;14.20;;;5.90;99.90;;;;;;5068142;28;20082;-44
2021/11/28 11:02:21;;;;;;;22.55;14.40;;;5.90;99.90;;;;;;5067828;28;20020;-42
2021/11/28 11:04:47;;;;;;;22.85;15.32;;;5.90;99.90;;;;;;5067160;28;20143;-43
2021/11/28 11:07:17;;;;;;;26.00;15.98;;;6.00;99.90;;;;;;5067874;28;20021;-43
2021/11/28 11:09:47;;;;;;;23.42;15.73;;;6.00;99.90;;;;;;5067675;28;20024;-42
2021/11/28 11:12:21;;;;;;;19.95;13.75;;;6.00;99.90;;;;;;5066381;28;20024;-42
2021/11/28 11:14:48;;;;;;;22.40;14.93;;;6.00;99.90;;;;;;5067818;28;20016;-43
2021/11/28 11:17:15;;;;;;;20.73;14.50;;;6.10;99.90;;;;;;5067993;28;20107;-43
2021/11/28 11:19:45;;;;;;;21.55;13.95;;;6.10;99.90;;;;;;5066537;28;20049;-43
2021/11/28 11:22:23;;;;;;;27.40;17.73;;;6.20;99.90;;;;;;5066833;28;20024;-44
2021/11/28 11:24:56;;;;;;;23.85;16.25;;;6.10;99.90;;;;;;5066874;28;20658;-43
2021/11/28 11:27:34;;;;;;;26.48;17.65;;;6.10;99.90;;;;;;5067667;28;20024;-43
2021/11/28 11:30:23;;;;;;;25.90;16.67;;;6.00;99.90;;;;;;5067405;28;20107;-42
2021/11/28 11:32:55;;;;;;;23.75;15.82;;;6.00;99.90;;;;;;5066025;28;20025;-43
2021/11/28 11:35:29;;;;;;;20.40;14.45;;;6.00;99.90;;;;;;5067743;28;20024;-43
2021/11/28 11:38:03;;;;;;;21.58;14.77;;;6.10;99.90;;;;;;5066756;28;20028;-43
2021/11/28 11:40:30;;;;;;;21.23;14.70;;;6.10;99.90;;;;;;5066449;28;20024;-43
2021/11/28 11:42:56;;;;;;;21.58;13.65;;;6.10;99.90;;;;;;5064844;28;20033;-42
2021/11/28 11:45:26;;;;;;;18.55;12.18;;;6.20;99.90;;;;;;5067219;28;20028;-42
2021/11/28 11:47:52;;;;;;;15.75;11.15;;;6.20;99.90;;;;;;5066657;28;20024;-42
2021/11/28 11:50:21;;;;;;;15.77;11.23;;;6.30;99.90;;;;;;5055886;28;20510;-43
2021/11/28 11:52:47;;;;;;;17.05;11.50;;;6.40;99.90;;;;;;5067724;28;20028;-43
2021/11/28 11:55:17;;;;;;;14.85;10.43;;;6.50;99.90;;;;;;5065931;28;20529;-43
2021/11/28 11:58:01;;;;;;;15.90;10.57;;;6.50;99.90;;;;;;5066640;28;20061;-43
2021/11/28 12:00:34;;;;;;;18.17;11.68;;;6.50;99.90;;;;;;5064571;28;20123;-43
2021/11/28 12:03:21;;;;;;;16.02;10.48;;;6.40;99.90;;;;;;5066672;28;20043;-42
2021/11/28 12:05:49;;;;;;;16.63;11.63;;;6.30;99.90;;;;;;5066853;28;20647;-44
2021/11/28 12:08:14;;;;;;;20.33;12.93;;;6.20;99.90;;;;;;5066437;28;20103;-43
2021/11/28 12:10:46;;;;;;;19.50;13.85;;;6.20;99.90;;;;;;5066749;28;20108;-44
2021/11/28 12:13:33;;;;;;;17.17;12.43;;;6.00;99.90;;;;;;5066771;28;20032;-44
2021/11/28 12:16:07;;;;;;;17.42;12.25;;;6.00;99.90;;;;;;5064112;28;20039;-43
2021/11/28 12:18:43;;;;;;;17.08;11.48;;;5.90;99.90;;;;;;5066447;28;20515;-43
2021/11/28 12:21:36;;;;;;;14.05;10.73;;;6.00;99.90;;;;;;5065470;28;20032;-43
2021/11/28 12:24:24;;;;;;;16.52;10.20;;;6.00;99.90;;;;;;5065625;28;20025;-43
2021/11/28 12:26:55;;;;;;;18.40;12.10;;;6.10;99.90;;;;;;5057959;28;20511;-43
2021/11/28 12:29:25;;;;;;;21.95;13.60;;;6.20;99.90;;;;;;5066234;28;20020;-43
2021/11/28 12:32:16;;;;;;;17.88;12.45;;;6.20;99.90;;;;;;5066578;28;20024;-42
2021/11/28 12:34:48;;;;;;;17.55;10.68;;;6.20;99.90;;;;;;5056931;28;20352;-42
2021/11/28 12:37:21;;;;;;;10.88;7.22;;;6.20;99.90;;;;;;5066553;28;20132;-43
2021/11/28 12:39:47;;;;;;;9.25;6.25;;;6.20;99.90;;;;;;5066109;28;20024;-43
2021/11/28 12:42:19;;;;;;;8.43;5.45;;;6.20;99.90;;;;;;5065257;28;20459;-42